Wellton, Arizona
Current Conditions -  °F | °C
As of 6:57 AM on Friday 24 Oct 2014 (Local Time) from KNYL Reporting Station
Clear Clear  
Wind Chill: 70°   Ceiling: Unl
Heat Index: 70°   Visibility: 10mi
Dew Point: 44°   Wind: 9mph
Humidity: 39%   Direction: 30°NNE
Pressure: 29.94"   Gusts: NA
Location:  32.67°N, 114.15°W
Report Text: KNYL 241357Z 03008KT 10SM CLR 21/07 A2994 RMK AO2 SLP136 T02110067
Loading
Personal Weather Stations






























Interactive Weather Map New forecast layout! Learn more

10-Day Weather Forecast

Advertisements
Track Severe Weather on mobile